Time;durP1;ratioP1;P1;durP2;ratioP2;P2;SDS_P1;SDS_P2;PMS_P1;PMS_P2;Temp;Humidity;BMP_temperature;BMP_pressure;BME280_temperature;BME280_humidity;BME280_pressure;Samples;Min_cycle;Max_cycle;Signal;HPM_P1;HPM_P2
2022/06/17 00:01:14;;;;;;;7.63;3.13;;;;;;;15.00;91.73;100131.56;5184969;22;20205;-71
2022/06/17 00:03:41;;;;;;;7.13;3.63;;;;;;;14.97;91.15;100132.78;5156785;22;22254;-70
2022/06/17 00:06:10;;;;;;;4.80;3.20;;;;;;;14.91;91.37;100127.28;5147062;22;20231;-71
2022/06/17 00:08:41;;;;;;;7.97;3.60;;;;;;;14.87;91.16;100128.69;5140914;22;22716;-73
2022/06/17 00:11:13;;;;;;;7.43;3.10;;;;;;;14.83;91.21;100127.38;5158630;22;20216;-72
2022/06/17 00:13:40;;;;;;;7.30;3.83;;;;;;;14.77;91.00;100128.91;5147423;22;21775;-73
2022/06/17 00:16:11;;;;;;;10.73;3.83;;;;;;;14.71;91.37;100126.97;5166589;22;20204;-74
2022/06/17 00:18:39;;;;;;;4.67;3.10;;;;;;;14.59;91.36;100128.41;5142475;22;20294;-72
2022/06/17 00:21:06;;;;;;;4.97;3.00;;;;;;;14.59;90.68;100126.56;5125586;22;25456;-71
2022/06/17 00:23:33;;;;;;;5.50;3.40;;;;;;;14.52;89.98;100126.41;5131811;22;20230;-72
2022/06/17 00:25:59;;;;;;;6.30;3.10;;;;;;;14.40;87.88;100125.16;5127737;22;23653;-71
2022/06/17 00:28:28;;;;;;;7.17;3.10;;;;;;;14.40;87.91;100129.66;5158607;22;21708;-71
2022/06/17 00:30:54;;;;;;;8.33;2.90;;;;;;;14.36;87.60;100124.66;5153463;22;22244;-71
2022/06/17 00:33:21;;;;;;;11.13;2.83;;;;;;;14.19;89.18;100128.47;5144070;22;21411;-71
2022/06/17 00:35:53;;;;;;;8.93;2.90;;;;;;;14.28;88.98;100129.22;5119425;22;23436;-71
2022/06/17 00:38:25;;;;;;;9.87;2.77;;;;;;;14.24;89.18;100127.94;5134868;22;20204;-71
2022/06/17 00:40:52;;;;;;;3.97;2.30;;;;;;;14.26;88.61;100133.94;5139808;22;20213;-72
2022/06/17 00:43:30;;;;;;;7.50;2.77;;;;;;;14.20;89.01;100126.63;5169970;22;20201;-71
2022/06/17 00:46:22;;;;;;;4.80;2.70;;;;;;;14.08;89.34;100134.22;5133795;22;20266;-72
2022/06/17 00:49:11;;;;;;;6.67;2.83;;;;;;;14.03;88.63;100128.56;5209950;22;20201;-72
2022/06/17 00:51:44;;;;;;;5.80;2.73;;;;;;;14.07;87.87;100124.50;5154953;22;20208;-71
2022/06/17 00:54:19;;;;;;;5.93;2.57;;;;;;;14.02;88.37;100129.53;5150811;22;20206;-71
2022/06/17 00:56:46;;;;;;;5.03;2.83;;;;;;;13.91;89.42;100130.78;5124806;22;20246;-72
2022/06/17 00:59:13;;;;;;;9.07;2.80;;;;;;;13.86;90.18;100128.63;5186407;22;20276;-70
2022/06/17 01:01:50;;;;;;;5.87;2.90;;;;;;;13.80;91.06;100118.63;5154775;22;20201;-71
2022/06/17 01:04:23;;;;;;;4.97;3.00;;;;;;;13.72;91.40;100118.66;5138248;22;20344;-72
2022/06/17 01:06:55;;;;;;;4.63;3.40;;;;;;;13.52;93.21;100127.06;5172459;22;20300;-71
2022/06/17 01:12:13;;;;;;;6.87;3.07;;;;;;;13.47;94.35;100123.25;5153243;22;22083;-71
2022/06/17 01:14:41;;;;;;;6.23;3.47;;;;;;;13.43;94.86;100127.25;5134219;22;20206;-72
2022/06/17 01:17:11;;;;;;;8.73;3.67;;;;;;;13.32;94.88;100130.28;5142359;22;20208;-71
2022/06/17 01:19:48;;;;;;;4.83;2.77;;;;;;;13.34;93.90;100128.28;5156874;22;20335;-72
2022/06/17 01:22:27;;;;;;;8.97;3.10;;;;;;;13.22;91.98;100133.13;5128960;22;24666;-72
2022/06/17 01:24:59;;;;;;;6.50;2.70;;;;;;;13.24;91.37;100139.13;5130498;22;20197;-71
2022/06/17 01:27:30;;;;;;;7.03;2.70;;;;;;;13.19;90.91;100141.50;5126876;22;20203;-70
2022/06/17 01:29:56;;;;;;;8.23;3.37;;;;;;;12.97;91.87;100140.31;5111990;22;20202;-70
2022/06/17 01:32:26;;;;;;;7.87;2.57;;;;;;;12.95;92.31;100140.50;5128051;22;20269;-68
2022/06/17 01:34:52;;;;;;;5.43;2.57;;;;;;;12.97;92.50;100149.19;5100591;22;20207;-71
2022/06/17 01:37:19;;;;;;;6.17;3.10;;;;;;;12.95;93.18;100153.88;5111497;22;21730;-69
2022/06/17 01:39:46;;;;;;;7.37;3.23;;;;;;;12.98;93.38;100150.84;5115617;22;20723;-72
2022/06/17 01:42:13;;;;;;;7.70;2.80;;;;;;;13.02;93.26;100154.84;5114129;22;22442;-70
2022/06/17 01:44:41;;;;;;;5.80;2.97;;;;;;;12.99;92.91;100163.19;5103073;22;20235;-70
2022/06/17 01:47:14;;;;;;;8.77;3.23;;;;;;;13.00;93.33;100164.03;5108985;22;20432;-68
2022/06/17 01:49:45;;;;;;;6.53;2.87;;;;;;;12.93;93.67;100163.88;5103209;22;20209;-69
2022/06/17 01:52:17;;;;;;;7.83;2.97;;;;;;;12.71;93.05;100165.34;5123594;22;20202;-69
2022/06/17 01:54:47;;;;;;;5.73;2.90;;;;;;;12.68;93.28;100161.19;5120202;22;20260;-69
2022/06/17 01:57:18;;;;;;;5.80;2.87;;;;;;;12.68;92.70;100171.03;5110380;22;20246;-69
2022/06/17 01:59:52;;;;;;;4.70;2.87;;;;;;;12.63;92.48;100168.84;5134515;22;20991;-70
2022/06/17 02:02:19;;;;;;;8.87;2.93;;;;;;;12.61;92.40;100164.69;5118357;22;21188;-70
2022/06/17 02:04:54;;;;;;;4.80;2.50;;;;;;;12.58;92.23;100181.03;5120835;22;20214;-70
2022/06/17 02:07:43;;;;;;;5.43;2.43;;;;;;;12.51;91.62;100172.84;5112645;22;20333;-69
2022/06/17 02:10:10;;;;;;;4.63;2.43;;;;;;;12.41;92.56;100170.31;5120658;22;22038;-70
2022/06/17 02:12:37;;;;;;;5.00;2.83;;;;;;;12.40;92.74;100179.31;5123035;22;20644;-72
2022/06/17 02:15:05;;;;;;;9.00;2.80;;;;;;;12.56;92.70;100183.84;5127530;22;20210;-71
2022/06/17 02:17:34;;;;;;;6.63;2.70;;;;;;;12.59;92.23;100186.19;5124130;22;20205;-69
2022/06/17 02:20:00;;;;;;;6.37;2.70;;;;;;;12.56;92.48;100186.53;5090394;22;20210;-72
2022/06/17 02:22:30;;;;;;;8.60;3.03;;;;;;;12.59;92.80;100190.69;5131382;22;20215;-71
2022/06/17 02:24:59;;;;;;;4.60;2.90;;;;;;;12.66;92.34;100189.88;5158282;22;20580;-70
2022/06/17 02:27:27;;;;;;;7.97;3.20;;;;;;;12.66;91.95;100200.53;5108106;22;20268;-71
2022/06/17 02:29:54;;;;;;;7.80;3.13;;;;;;;12.55;92.90;100200.03;5137377;22;20202;-70
2022/06/17 02:32:20;;;;;;;8.17;3.07;;;;;;;12.52;92.35;100193.19;5147858;22;20207;-70
2022/06/17 02:35:15;;;;;;;7.70;3.17;;;;;;;12.44;93.67;100190.50;5190772;22;20229;-72
2022/06/17 02:37:41;;;;;;;5.27;2.97;;;;;;;12.48;93.60;100197.19;5117393;22;21435;-73
2022/06/17 02:40:30;;;;;;;7.67;2.93;;;;;;;12.50;93.68;100202.34;5140382;22;22288;-72
2022/06/17 02:42:58;;;;;;;9.50;2.83;;;;;;;12.54;93.62;100201.88;5179006;22;20236;-71
2022/06/17 02:45:27;;;;;;;6.10;3.37;;;;;;;12.54;93.72;100201.88;5197261;22;21194;-71
2022/06/17 02:47:55;;;;;;;7.97;3.53;;;;;;;12.50;93.34;100205.03;5182182;22;20244;-72
2022/06/17 02:50:24;;;;;;;5.93;2.77;;;;;;;12.58;93.74;100219.22;5185463;22;20262;-72
2022/06/17 02:52:53;;;;;;;7.60;3.50;;;;;;;12.53;93.31;100224.22;5224391;22;20211;-73
2022/06/17 02:55:32;;;;;;;8.30;2.97;;;;;;;12.41;93.90;100222.88;5214009;22;20236;-72
2022/06/17 02:58:11;;;;;;;8.20;3.40;;;;;;;12.36;93.02;100226.03;5204479;22;20993;-73
2022/06/17 03:00:39;;;;;;;10.47;3.00;;;;;;;12.46;92.60;100229.38;5143250;22;20290;-70
2022/06/17 03:03:07;;;;;;;7.57;2.87;;;;;;;12.41;92.64;100223.69;5206505;22;21417;-71
2022/06/17 03:05:37;;;;;;;5.90;3.00;;;;;;;12.31;91.87;100219.47;5172917;22;20202;-71
2022/06/17 03:08:24;;;;;;;11.03;2.60;;;;;;;12.38;91.07;100233.84;5139251;22;20569;-71
2022/06/17 03:10:53;;;;;;;8.33;2.50;;;;;;;12.17;90.34;100234.25;5198770;22;20208;-72
2022/06/17 03:13:25;;;;;;;8.93;2.60;;;;;;;12.16;90.11;100236.09;5184804;22;24937;-73
2022/06/17 03:15:55;;;;;;;5.37;2.23;;;;;;;12.10;90.02;100235.91;5160031;22;21733;-72
2022/06/17 03:18:23;;;;;;;3.07;2.20;;;;;;;12.29;88.84;100234.81;5187667;22;20264;-72
2022/06/17 03:20:50;;;;;;;5.43;2.13;;;;;;;12.19;88.79;100232.28;5185651;22;20255;-72
2022/06/17 03:23:21;;;;;;;5.03;2.33;;;;;;;12.25;88.07;100239.66;5163995;22;24778;-70
2022/06/17 03:25:54;;;;;;;5.87;2.30;;;;;;;12.12;88.39;100244.59;5161536;22;20202;-72
2022/06/17 03:28:39;;;;;;;5.03;2.40;;;;;;;12.03;89.23;100246.38;5155356;22;23565;-70
2022/06/17 03:31:12;;;;;;;5.93;2.27;;;;;;;12.15;88.68;100250.44;5143411;22;20305;-71
2022/06/17 03:34:03;;;;;;;5.07;2.20;;;;;;;12.29;87.83;100243.69;5180974;22;22559;-72
2022/06/17 03:37:05;;;;;;;5.83;2.63;;;;;;;12.29;87.66;100246.34;5193759;22;20235;-71
2022/06/17 03:39:47;;;;;;;8.43;2.33;;;;;;;12.37;87.55;100243.69;5141637;23;20209;-72
2022/06/17 03:42:16;;;;;;;4.43;2.00;;;;;;;12.55;87.06;100254.28;5166003;22;21411;-73
2022/06/17 03:44:50;;;;;;;6.57;2.00;;;;;;;12.57;86.27;100256.75;5190479;22;20206;-72
2022/06/17 03:47:42;;;;;;;4.03;2.20;;;;;;;12.50;86.10;100253.91;5181115;22;20202;-72
2022/06/17 03:50:22;;;;;;;2.70;1.73;;;;;;;12.58;86.51;100261.13;5158982;22;20369;-72
2022/06/17 03:52:56;;;;;;;2.93;1.67;;;;;;;12.71;85.70;100255.28;5149086;22;20213;-72
2022/06/17 03:55:23;;;;;;;7.17;2.37;;;;;;;12.74;85.80;100263.00;5150380;22;20213;-74
2022/06/17 03:57:53;;;;;;;3.80;1.50;;;;;;;12.80;85.81;100259.66;5143564;22;21089;-72
2022/06/17 04:00:24;;;;;;;3.50;1.70;;;;;;;12.87;85.92;100261.50;5167874;22;20200;-73
2022/06/17 04:02:52;;;;;;;5.27;1.67;;;;;;;12.93;85.20;100264.53;5137634;22;20205;-71
2022/06/17 04:05:20;;;;;;;3.53;1.50;;;;;;;13.08;84.45;100262.88;5130225;22;21451;-71
2022/06/17 04:07:47;;;;;;;4.10;1.67;;;;;;;13.18;83.83;100265.38;5169896;22;20200;-72
2022/06/17 04:10:21;;;;;;;4.33;1.70;;;;;;;13.22;82.82;100269.41;5162146;22;21702;-71
2022/06/17 04:12:49;;;;;;;2.47;1.40;;;;;;;13.30;82.09;100266.78;5187573;22;20251;-73
2022/06/17 04:15:45;;;;;;;2.83;1.40;;;;;;;13.36;82.06;100271.44;5141418;22;20205;-73
2022/06/17 04:18:12;;;;;;;3.23;1.50;;;;;;;13.51;81.54;100280.47;5153057;22;21285;-74
2022/06/17 04:20:42;;;;;;;6.47;1.80;;;;;;;13.49;81.07;100281.63;5162887;22;20557;-72
2022/06/17 04:23:14;;;;;;;5.50;1.80;;;;;;;13.54;80.32;100278.47;5160171;22;20267;-73
2022/06/17 04:25:57;;;;;;;2.00;1.30;;;;;;;13.52;79.56;100279.44;5129561;22;20717;-72
2022/06/17 04:28:30;;;;;;;2.63;1.20;;;;;;;13.75;79.15;100281.44;5165755;22;22737;-71
2022/06/17 04:31:06;;;;;;;5.83;1.43;;;;;;;13.73;79.35;100288.78;5142306;22;22252;-71
2022/06/17 04:33:46;;;;;;;2.87;1.20;;;;;;;13.93;78.04;100278.56;5147427;22;23219;-70
2022/06/17 04:36:23;;;;;;;2.70;1.43;;;;;;;14.14;78.59;100286.03;5145972;22;20209;-72
2022/06/17 04:39:02;;;;;;;6.87;1.90;;;;;;;14.55;77.03;100293.94;5155495;22;21317;-71
2022/06/17 04:41:32;;;;;;;3.60;1.60;;;;;;;14.77;75.78;100298.53;5145105;22;20599;-71
2022/06/17 04:43:59;;;;;;;5.80;1.30;;;;;;;15.03;74.37;100297.38;5136886;22;20249;-72
2022/06/17 04:46:30;;;;;;;5.37;1.50;;;;;;;14.99;73.39;100296.88;5160423;22;24833;-72
2022/06/17 04:48:57;;;;;;;4.13;1.30;;;;;;;15.04;73.22;100307.06;5167038;22;20197;-71
2022/06/17 04:51:28;;;;;;;3.10;1.33;;;;;;;15.14;73.20;100299.63;5150651;22;20320;-71
2022/06/17 04:53:59;;;;;;;3.57;1.20;;;;;;;15.12;73.07;100304.31;5158519;22;22444;-71
2022/06/17 04:56:34;;;;;;;3.03;1.33;;;;;;;14.96;73.32;100307.09;5172045;22;20205;-71
2022/06/17 04:59:32;;;;;;;4.40;1.20;;;;;;;14.87;74.00;100310.88;5140059;22;20241;-72
2022/06/17 05:02:00;;;;;;;4.30;1.30;;;;;;;15.10;72.86;100306.38;5190051;22;20202;-73
2022/06/17 05:04:27;;;;;;;4.07;1.40;;;;;;;15.09;73.54;100302.00;5129888;22;20201;-73
2022/06/17 05:06:54;;;;;;;6.37;1.27;;;;;;;15.11;72.87;100302.66;5140823;22;21142;-73
2022/06/17 05:09:25;;;;;;;4.73;1.23;;;;;;;15.28;71.56;100303.38;5133298;22;25404;-72
2022/06/17 05:11:56;;;;;;;2.67;1.10;;;;;;;15.43;71.97;100306.13;5160304;22;20200;-74
2022/06/17 05:15:01;;;;;;;2.73;1.10;;;;;;;15.37;72.36;100306.84;5139246;22;20311;-71
2022/06/17 05:17:28;;;;;;;3.37;1.20;;;;;;;15.53;71.07;100311.25;5114398;22;20808;-72
2022/06/17 05:19:54;;;;;;;2.60;1.40;;;;;;;15.89;69.87;100308.75;5163831;22;20205;-73
2022/06/17 05:22:34;;;;;;;2.57;1.30;;;;;;;16.34;67.81;100301.59;5147508;22;20336;-72
2022/06/17 05:25:05;;;;;;;6.90;1.37;;;;;;;16.84;66.09;100312.56;5152425;22;20212;-73
2022/06/17 05:27:31;;;;;;;5.33;1.30;;;;;;;17.38;64.84;100313.97;5144987;22;21769;-72
2022/06/17 05:29:58;;;;;;;4.73;1.30;;;;;;;17.65;62.38;100323.94;5201167;22;20201;-72
2022/06/17 05:32:24;;;;;;;6.37;1.57;;;;;;;17.73;62.51;100320.28;5127872;22;20620;-73
2022/06/17 05:34:51;;;;;;;6.40;1.43;;;;;;;17.61;61.52;100330.72;5133135;22;20201;-73
2022/06/17 05:37:18;;;;;;;5.27;1.40;;;;;;;18.19;60.29;100332.44;5139697;22;20212;-72
2022/06/17 05:39:45;;;;;;;3.37;1.20;;;;;;;18.88;57.50;100336.97;5179713;22;25454;-71
2022/06/17 05:42:12;;;;;;;4.80;1.00;;;;;;;19.44;56.72;100346.66;5151808;22;20259;-72
2022/06/17 05:44:39;;;;;;;4.87;1.43;;;;;;;20.30;53.55;100353.94;5105780;22;22033;-71
2022/06/17 05:47:06;;;;;;;4.07;1.30;;;;;;;20.46;51.59;100353.47;5157349;22;20238;-71
2022/06/17 05:49:33;;;;;;;3.00;1.47;;;;;;;20.62;51.79;100349.53;5164379;22;20198;-71
2022/06/17 05:52:00;;;;;;;4.03;1.40;;;;;;;21.29;49.22;100364.41;5157484;22;20201;-71
2022/06/17 05:54:27;;;;;;;4.77;2.30;;;;;;;22.24;46.83;100368.97;5141220;22;20202;-70
2022/06/17 05:56:53;;;;;;;5.07;1.17;;;;;;;22.96;45.17;100365.63;5166409;22;20213;-71
2022/06/17 05:59:20;;;;;;;3.67;1.37;;;;;;;22.37;46.53;100364.44;5160060;22;20412;-72
2022/06/17 06:01:47;;;;;;;4.40;1.40;;;;;;;23.35;43.31;100372.44;5146767;22;21215;-73
2022/06/17 06:04:14;;;;;;;2.13;1.20;;;;;;;23.41;42.92;100375.28;5156853;22;20213;-72
2022/06/17 06:06:40;;;;;;;6.17;1.57;;;;;;;22.07;45.50;100368.66;5141608;22;20201;-69
2022/06/17 06:09:08;;;;;;;3.30;1.27;;;;;;;22.43;45.96;100367.09;5164154;22;21711;-71
2022/06/17 06:11:35;;;;;;;2.43;1.33;;;;;;;23.69;42.43;100371.94;5111762;22;20255;-70
2022/06/17 06:14:02;;;;;;;2.87;1.43;;;;;;;23.18;43.89;100368.75;5134738;22;20211;-69
2022/06/17 06:16:30;;;;;;;2.67;1.30;;;;;;;24.67;39.81;100381.34;5175282;22;20412;-70
2022/06/17 06:18:57;;;;;;;3.30;1.27;;;;;;;25.88;37.22;100386.69;5171489;22;20261;-68
2022/06/17 06:21:23;;;;;;;2.50;1.10;;;;;;;24.11;40.19;100378.16;5154993;22;20201;-69
2022/06/17 06:23:50;;;;;;;4.20;1.70;;;;;;;25.33;37.69;100378.34;5168771;22;20575;-70
2022/06/17 06:26:18;;;;;;;7.30;1.63;;;;;;;24.69;38.80;100379.22;5174837;22;20201;-70
2022/06/17 06:28:45;;;;;;;4.03;1.20;;;;;;;25.93;36.25;100372.31;5149719;22;20211;-71
2022/06/17 06:31:27;;;;;;;5.57;1.60;;;;;;;26.68;34.45;100394.72;5150204;22;20208;-73
2022/06/17 06:33:55;;;;;;;3.17;1.37;;;;;;;26.13;34.09;100380.00;5143990;22;25010;-72
2022/06/17 06:36:22;;;;;;;3.33;1.20;;;;;;;26.16;33.76;100381.41;5167246;22;22695;-71
2022/06/17 06:38:48;;;;;;;3.60;1.20;;;;;;;27.52;31.35;100396.28;5194977;22;20212;-76
2022/06/17 06:41:17;;;;;;;3.13;1.00;;;;;;;26.40;31.76;100392.94;5155343;22;20372;-69
2022/06/17 06:43:44;;;;;;;7.83;1.80;;;;;;;26.83;31.49;100388.63;5204326;22;20929;-71
2022/06/17 06:46:13;;;;;;;5.20;1.50;;;;;;;25.72;33.75;100387.50;5198885;22;20407;-73
2022/06/17 06:48:46;;;;;;;4.60;1.03;;;;;;;27.25;31.06;100399.81;5169058;22;20207;-71
2022/06/17 06:51:13;;;;;;;3.27;1.20;;;;;;;26.18;32.64;100395.63;5165007;22;20619;-71
2022/06/17 06:53:40;;;;;;;2.50;0.90;;;;;;;25.15;35.34;100371.19;5203069;22;20658;-74
2022/06/17 06:56:06;;;;;;;2.73;1.00;;;;;;;26.13;34.36;100387.34;5180072;22;20268;-73
2022/06/17 06:58:33;;;;;;;2.07;1.10;;;;;;;27.60;32.02;100390.31;5166710;22;20205;-73
2022/06/17 07:00:59;;;;;;;3.87;1.13;;;;;;;26.61;33.92;100391.34;5140925;22;20290;-73
2022/06/17 07:03:28;;;;;;;2.03;1.00;;;;;;;27.49;31.89;100389.41;5142671;22;20256;-75
2022/06/17 07:05:59;;;;;;;5.23;1.20;;;;;;;28.88;28.71;100402.19;5173303;22;20226;-73
2022/06/17 07:08:28;;;;;;;3.53;0.95;;;;;;;27.28;30.50;100388.38;5158499;22;21544;-74
2022/06/17 07:10:59;;;;;;;4.33;0.93;;;;;;;25.56;34.19;100375.50;5163330;22;20219;-73
2022/06/17 07:13:30;;;;;;;1.80;0.93;;;;;;;26.19;32.99;100380.91;5155755;22;20376;-75
2022/06/17 07:15:58;;;;;;;3.67;0.80;;;;;;;25.83;34.12;100370.25;5177702;22;20201;-73
2022/06/17 07:18:28;;;;;;;5.30;1.47;;;;;;;25.60;34.14;100373.13;5164701;22;22204;-73
2022/06/17 07:21:00;;;;;;;4.33;1.20;;;;;;;24.79;36.88;100365.81;5172680;22;20201;-74
2022/06/17 07:23:33;;;;;;;3.77;1.00;;;;;;;24.89;36.54;100372.53;5152219;22;20198;-71
2022/06/17 07:26:05;;;;;;;2.83;1.20;;;;;;;24.29;37.47;100373.69;5200342;22;20195;-69
2022/06/17 07:28:32;;;;;;;2.00;0.90;;;;;;;24.77;36.60;100376.16;5174902;22;20206;-70
2022/06/17 07:30:59;;;;;;;5.50;1.03;;;;;;;24.15;36.76;100375.81;5131772;22;23001;-70
2022/06/17 07:33:29;;;;;;;2.87;1.03;;;;;;;23.75;38.00;100373.78;5153051;22;20421;-73
2022/06/17 07:35:59;;;;;;;2.00;0.90;;;;;;;23.59;38.69;100365.19;5187447;22;20362;-74
2022/06/17 07:41:15;;;;;;;4.93;1.83;;;;;;;22.71;42.13;100361.16;5172249;22;21506;-70
2022/06/17 07:43:46;;;;;;;4.47;1.20;;;;;;;22.30;41.88;100351.78;5184901;22;21317;-76
2022/06/17 07:46:18;;;;;;;4.57;1.20;;;;;;;22.45;41.63;100358.72;5164491;22;21011;-71
2022/06/17 07:48:45;;;;;;;3.87;1.50;;;;;;;22.59;41.42;100353.97;5152405;22;21563;-74
2022/06/17 07:51:12;;;;;;;6.47;1.53;;;;;;;22.79;41.61;100359.19;5167151;22;20350;-67
2022/06/17 07:53:41;;;;;;;7.40;1.30;;;;;;;22.48;42.59;100358.28;5171303;22;20206;-65
2022/06/17 07:56:10;;;;;;;5.70;1.63;;;;;;;22.08;45.07;100347.81;5153651;22;21167;-67
2022/06/17 07:58:37;;;;;;;3.20;0.90;;;;;;;22.29;43.30;100363.69;5149228;22;20269;-69
2022/06/17 08:01:04;;;;;;;2.97;1.30;;;;;;;21.97;44.06;100356.66;5206138;22;21758;-66
2022/06/17 08:03:31;;;;;;;5.83;1.40;;;;;;;22.36;42.58;100354.66;5196899;22;20205;-65
2022/06/17 08:06:01;;;;;;;5.60;1.30;;;;;;;21.97;43.79;100359.38;5183572;22;20312;-66
2022/06/17 08:08:28;;;;;;;6.57;1.20;;;;;;;21.97;43.27;100353.97;5134973;22;20201;-66
2022/06/17 08:10:57;;;;;;;3.10;0.97;;;;;;;21.34;43.10;100357.53;5146248;22;20351;-66
2022/06/17 08:13:25;;;;;;;2.47;1.03;;;;;;;21.03;45.10;100359.97;5162571;22;22109;-68
2022/06/17 08:15:55;;;;;;;3.63;1.10;;;;;;;21.45;44.08;100356.88;5175875;22;20529;-68
2022/06/17 08:18:22;;;;;;;5.30;1.00;;;;;;;22.13;45.75;100361.53;5182878;22;20299;-64
2022/06/17 08:20:50;;;;;;;3.90;1.10;;;;;;;21.81;43.72;100352.63;5189557;22;20357;-66
2022/06/17 08:23:16;;;;;;;4.20;0.97;;;;;;;21.40;44.61;100351.25;5148976;22;20202;-66
2022/06/17 08:25:43;;;;;;;2.37;1.00;;;;;;;21.08;45.50;100360.16;5136155;22;20203;-67
2022/06/17 08:28:11;;;;;;;2.23;1.00;;;;;;;20.97;45.88;100351.88;5137650;22;21540;-66
2022/06/17 08:30:41;;;;;;;3.67;1.10;;;;;;;21.02;45.38;100349.34;5176138;22;21826;-69
2022/06/17 08:33:08;;;;;;;10.63;1.23;;;;;;;21.29;46.11;100359.00;5134788;22;20198;-67
2022/06/17 08:35:58;;;;;;;2.73;1.13;;;;;;;21.76;45.13;100358.72;5172620;22;25510;-64
2022/06/17 08:38:31;;;;;;;3.77;1.00;;;;;;;21.63;44.86;100361.50;5149129;22;22171;-68
2022/06/17 08:41:00;;;;;;;2.10;0.90;;;;;;;21.55;43.85;100364.50;5176765;22;20231;-66
2022/06/17 08:43:52;;;;;;;2.70;0.87;;;;;;;21.82;43.14;100370.53;5158663;22;20534;-71
2022/06/17 08:46:29;;;;;;;3.17;1.10;;;;;;;21.38;45.17;100367.69;5149534;22;20414;-72
2022/06/17 08:49:33;;;;;;;3.23;1.03;;;;;;;21.85;44.17;100360.09;5146386;22;20210;-72
2022/06/17 08:52:21;;;;;;;6.60;1.20;;;;;;;21.50;44.52;100359.75;5181225;22;22297;-71
2022/06/17 08:55:13;;;;;;;2.43;1.00;;;;;;;21.24;46.47;100366.13;5162282;22;20259;-73
2022/06/17 08:57:47;;;;;;;5.87;1.33;;;;;;;21.67;46.71;100365.44;5176418;22;20298;-70
2022/06/17 09:00:21;;;;;;;2.83;1.20;;;;;;;22.25;43.21;100367.91;5201853;22;20272;-72
2022/06/17 09:03:24;;;;;;;3.30;1.43;;;;;;;21.83;44.45;100362.19;5188403;22;20204;-71
2022/06/17 09:05:58;;;;;;;3.83;1.00;;;;;;;21.98;43.64;100385.41;5166567;22;22812;-70
2022/06/17 09:08:49;;;;;;;2.13;1.00;;;;;;;22.23;42.62;100382.72;5165568;22;20282;-71
2022/06/17 09:11:34;;;;;;;5.20;1.10;;;;;;;21.98;43.89;100375.41;5199728;22;23609;-71
2022/06/17 09:14:17;;;;;;;3.07;0.97;;;;;;;22.15;43.64;100383.81;5166572;22;20301;-72
2022/06/17 09:16:56;;;;;;;3.33;1.10;;;;;;;22.54;41.72;100392.63;5198241;22;20437;-71
2022/06/17 09:19:28;;;;;;;3.53;1.00;;;;;;;22.41;41.32;100388.19;5160146;22;20228;-74
2022/06/17 09:22:10;;;;;;;2.93;1.30;;;;;;;22.27;43.61;100387.47;5191118;22;21824;-70
2022/06/17 09:24:40;;;;;;;2.47;1.10;;;;;;;22.39;43.58;100392.19;5184238;22;20320;-72
2022/06/17 09:27:24;;;;;;;4.13;0.97;;;;;;;22.01;44.63;100393.09;5144803;22;20211;-72
2022/06/17 09:30:01;;;;;;;3.17;1.40;;;;;;;21.65;44.94;100389.19;5139440;22;22186;-72
2022/06/17 09:32:36;;;;;;;4.77;1.10;;;;;;;21.61;45.82;100396.09;5162326;22;20262;-70
2022/06/17 09:35:14;;;;;;;3.67;0.90;;;;;;;21.73;45.06;100394.38;5165591;22;20641;-72
2022/06/17 09:38:08;;;;;;;4.83;1.00;;;;;;;22.03;44.57;100399.13;5179851;22;20211;-72
2022/06/17 09:40:44;;;;;;;2.67;0.90;;;;;;;22.08;42.62;100412.88;5154110;22;20204;-72
2022/06/17 09:43:23;;;;;;;6.23;1.10;;;;;;;21.65;45.18;100403.56;5148832;22;22037;-70
2022/06/17 09:45:57;;;;;;;4.77;1.10;;;;;;;21.54;46.20;100400.72;5196934;22;20289;-71
2022/06/17 09:48:28;;;;;;;5.40;1.20;;;;;;;22.02;42.84;100402.91;5130998;22;20810;-72
2022/06/17 09:51:02;;;;;;;6.53;1.10;;;;;;;22.11;43.61;100404.28;5189299;22;20546;-72
2022/06/17 09:53:34;;;;;;;3.00;1.10;;;;;;;21.95;43.64;100407.53;5157095;22;20627;-73
2022/06/17 09:56:39;;;;;;;4.03;1.30;;;;;;;21.39;45.65;100404.53;5173417;22;20282;-69
2022/06/17 09:59:19;;;;;;;3.97;1.13;;;;;;;21.12;46.43;100403.00;5142346;22;20215;-71
2022/06/17 10:01:47;;;;;;;3.90;1.10;;;;;;;20.94;45.51;100409.97;5163848;22;20210;-71
2022/06/17 10:04:15;;;;;;;3.40;1.20;;;;;;;21.01;46.46;100407.22;5165668;22;20631;-72
2022/06/17 10:06:57;;;;;;;5.07;1.10;;;;;;;21.55;46.74;100405.94;5150476;22;20209;-70
2022/06/17 10:09:34;;;;;;;6.17;1.10;;;;;;;21.50;44.41;100411.19;5183246;22;20200;-74
2022/06/17 10:12:09;;;;;;;3.37;1.37;;;;;;;21.45;45.21;100417.25;5193632;22;20200;-70
2022/06/17 10:15:10;;;;;;;6.30;1.13;;;;;;;21.29;44.64;100415.00;5161534;22;20236;-70
2022/06/17 10:18:33;;;;;;;2.37;0.90;;;;;;;21.38;45.29;100408.31;5141331;22;21541;-72
2022/06/17 10:21:08;;;;;;;6.83;1.20;;;;;;;21.20;43.64;100405.47;5054329;23;21789;-71
2022/06/17 10:23:46;;;;;;;2.90;1.30;;;;;;;21.20;45.48;100405.47;5089392;23;20247;-70
2022/06/17 10:26:15;;;;;;;10.30;1.00;;;;;;;21.40;45.23;100411.66;5125112;22;20293;-70
2022/06/17 10:29:00;;;;;;;2.23;0.90;;;;;;;21.35;45.97;100410.59;5134732;22;20229;-74
2022/06/17 10:31:34;;;;;;;4.23;1.27;;;;;;;21.63;43.74;100418.38;5162096;22;20248;-72
2022/06/17 10:34:27;;;;;;;2.77;1.00;;;;;;;21.82;42.82;100408.47;5144287;22;21432;-71
2022/06/17 10:36:56;;;;;;;4.23;0.97;;;;;;;21.90;42.68;100405.50;5221827;22;20559;-70
2022/06/17 10:39:26;;;;;;;2.63;1.20;;;;;;;22.45;41.94;100415.66;5223067;22;20972;-71
2022/06/17 10:41:53;;;;;;;2.23;0.80;;;;;;;22.12;42.32;100408.63;5140979;22;20234;-73
2022/06/17 10:44:23;;;;;;;3.23;1.10;;;;;;;21.92;42.51;100415.06;5145979;22;20244;-72
2022/06/17 10:47:05;;;;;;;4.00;1.30;;;;;;;21.43;44.23;100410.41;5120199;22;20199;-72
2022/06/17 10:49:39;;;;;;;3.73;0.90;;;;;;;21.58;43.44;100404.66;5140620;22;20285;-72
2022/06/17 10:52:13;;;;;;;4.23;1.27;;;;;;;21.43;44.64;100405.81;5155118;22;20211;-74
2022/06/17 10:54:42;;;;;;;2.87;1.27;;;;;;;21.31;45.37;100406.69;5115717;22;20435;-68
2022/06/17 10:57:12;;;;;;;2.97;1.10;;;;;;;21.54;45.57;100400.72;5102503;22;20215;-73
2022/06/17 10:59:41;;;;;;;4.87;0.97;;;;;;;21.60;46.02;100406.09;5140766;22;20203;-59
2022/06/17 11:02:30;;;;;;;1.97;1.00;;;;;;;21.42;46.36;100404.16;5137895;22;20201;-63
2022/06/17 11:05:04;;;;;;;2.30;0.97;;;;;;;21.58;43.74;100399.25;5128193;22;22174;-69
2022/06/17 11:07:33;;;;;;;4.43;1.10;;;;;;;21.56;43.79;100404.88;5199044;22;20201;-69
2022/06/17 11:10:05;;;;;;;1.83;0.90;;;;;;;21.68;43.35;100403.16;5195132;22;20589;-71
2022/06/17 11:12:39;;;;;;;3.13;1.27;;;;;;;21.74;43.73;100409.56;5196327;22;20198;-66
2022/06/17 11:15:35;;;;;;;2.27;1.00;;;;;;;22.07;42.64;100412.00;5200769;22;20562;-67
2022/06/17 11:18:20;;;;;;;3.30;1.07;;;;;;;22.08;43.75;100421.81;5143878;22;22255;-69
2022/06/17 11:21:00;;;;;;;2.17;1.20;;;;;;;22.08;42.48;100426.41;5174568;22;20206;-68
2022/06/17 11:23:40;;;;;;;5.90;1.20;;;;;;;21.87;43.31;100422.19;5164638;22;20258;-69
2022/06/17 11:26:17;;;;;;;2.33;1.00;;;;;;;21.81;44.35;100420.34;5178280;22;20252;-68
2022/06/17 11:28:50;;;;;;;2.33;1.10;;;;;;;21.61;43.83;100420.47;5178390;22;20266;-69
2022/06/17 11:31:19;;;;;;;2.93;1.03;;;;;;;21.74;44.40;100419.56;5155206;22;20277;-69
2022/06/17 11:33:53;;;;;;;3.10;1.17;;;;;;;21.96;44.90;100425.44;5161440;22;20266;-69
2022/06/17 11:36:28;;;;;;;2.47;1.10;;;;;;;22.03;44.10;100418.09;5231629;22;20420;-69
2022/06/17 11:38:57;;;;;;;3.17;1.10;;;;;;;21.97;43.92;100417.09;5148889;22;22808;-70
2022/06/17 11:41:27;;;;;;;3.30;0.90;;;;;;;21.66;45.02;100417.97;5181651;22;21378;-70
2022/06/17 11:43:56;;;;;;;2.93;1.17;;;;;;;21.83;44.12;100418.25;5202858;22;20207;-69
2022/06/17 11:46:31;;;;;;;1.20;0.80;;;;;;;22.06;43.43;100425.81;5199720;22;20208;-69
2022/06/17 11:49:06;;;;;;;5.83;1.40;;;;;;;22.11;43.71;100420.53;5179036;22;20510;-69
2022/06/17 11:51:50;;;;;;;3.47;1.03;;;;;;;22.22;41.33;100414.44;5175912;22;20298;-67
2022/06/17 11:54:21;;;;;;;3.27;1.10;;;;;;;22.19;41.08;100412.13;5179975;22;21704;-70
2022/06/17 11:56:48;;;;;;;2.73;1.07;;;;;;;21.62;43.00;100403.19;5151769;22;20359;-71